Time;durP1;ratioP1;P1;durP2;ratioP2;P2;SDS_P1;SDS_P2;PMS_P1;PMS_P2;Temp;Humidity;BMP_temperature;BMP_pressure;BME280_temperature;BME280_humidity;BME280_pressure;Samples;Min_cycle;Max_cycle;Signal;HPM_P1;HPM_P2
2022/09/25 00:01:19;;;;;;;11.17;10.57;;;;;;;8.15;80.15;93119.06;5129884;28;20199;-77
2022/09/25 00:03:45;;;;;;;11.07;10.37;;;;;;;8.21;80.49;93130.31;5131080;28;20255;-76
2022/09/25 00:06:15;;;;;;;11.77;10.97;;;;;;;8.38;81.06;93153.56;5131443;28;20227;-76
2022/09/25 00:08:40;;;;;;;11.87;10.77;;;;;;;8.18;81.71;93143.81;5129985;28;20190;-76
2022/09/25 00:11:12;;;;;;;10.97;10.37;;;;;;;8.27;81.25;93152.72;5131299;28;20163;-76
2022/09/25 00:13:39;;;;;;;12.13;11.23;;;;;;;8.29;81.01;93155.09;5129807;28;20207;-77
2022/09/25 00:16:08;;;;;;;11.07;10.47;;;;;;;8.15;81.28;93155.47;5129728;28;20172;-77
2022/09/25 00:21:18;;;;;;;10.50;10.00;;;;;;;8.21;81.32;93148.50;5129538;28;20255;-77
2022/09/25 00:23:44;;;;;;;9.80;9.30;;;;;;;8.14;80.73;93143.50;5130058;28;20223;-77
2022/09/25 00:26:11;;;;;;;9.13;8.53;;;;;;;8.33;80.91;93145.75;5132283;27;20221;-77
2022/09/25 00:28:38;;;;;;;10.77;10.23;;;;;;;8.23;81.61;93136.06;5126938;28;20195;-76
2022/09/25 00:31:05;;;;;;;10.50;9.90;;;;;;;8.15;80.89;93134.66;5131537;28;20205;-76
2022/09/25 00:33:32;;;;;;;11.27;10.67;;;;;;;7.89;81.12;93108.78;5130547;27;20192;-76
2022/09/25 00:36:06;;;;;;;10.20;9.80;;;;;;;8.04;81.67;93138.25;5130616;28;20200;-76
2022/09/25 00:38:32;;;;;;;10.33;9.73;;;;;;;8.07;82.02;93139.56;5130329;28;20183;-76
2022/09/25 00:40:59;;;;;;;10.93;10.33;;;;;;;8.16;81.41;93135.47;5131332;28;20210;-76
2022/09/25 00:43:46;;;;;;;10.43;9.83;;;;;;;8.14;80.95;93133.13;5130654;28;20179;-76
2022/09/25 00:46:11;;;;;;;10.83;10.23;;;;;;;8.09;81.85;93130.47;5131173;28;20193;-76
2022/09/25 00:48:47;;;;;;;10.50;9.70;;;;;;;7.97;83.04;93127.28;5129922;28;20207;-77
2022/09/25 00:51:15;;;;;;;11.33;10.63;;;;;;;7.95;82.14;93108.53;5128499;27;20183;-76
2022/09/25 00:53:40;;;;;;;10.73;10.07;;;;;;;7.92;82.40;93108.28;5129930;28;20278;-77
2022/09/25 00:56:11;;;;;;;9.77;9.23;;;;;;;8.01;81.59;93117.97;5129318;28;20188;-77
2022/09/25 00:58:39;;;;;;;10.63;10.03;;;;;;;7.90;82.03;93108.53;5130519;28;20214;-76
2022/09/25 01:01:06;;;;;;;10.27;9.70;;;;;;;7.85;82.36;93129.28;5129324;28;20175;-77
2022/09/25 01:03:32;;;;;;;10.33;9.73;;;;;;;7.73;83.90;93130.47;5129966;28;20202;-77
2022/09/25 01:05:59;;;;;;;11.00;10.33;;;;;;;7.84;83.11;93129.53;5128677;28;20187;-77
2022/09/25 01:08:27;;;;;;;10.60;10.00;;;;;;;7.72;83.54;93118.53;5128468;28;20187;-77
2022/09/25 01:10:52;;;;;;;10.13;9.57;;;;;;;7.60;83.91;93102.31;5129574;28;20196;-77
2022/09/25 01:13:19;;;;;;;11.13;10.53;;;;;;;7.73;84.21;93109.69;5130053;28;20222;-75
2022/09/25 01:16:07;;;;;;;10.53;9.93;;;;;;;8.00;82.57;93116.38;5125963;28;20232;-76
2022/09/25 01:18:50;;;;;;;10.07;9.57;;;;;;;7.95;81.87;93118.19;5128489;28;20275;-76
2022/09/25 01:21:38;;;;;;;10.30;9.80;;;;;;;7.85;82.29;93111.09;5130241;28;20260;-77
2022/09/25 01:24:32;;;;;;;10.87;10.10;;;;;;;7.65;83.28;93123.13;5129591;28;20300;-77
2022/09/25 01:27:22;;;;;;;9.17;8.67;;;;;;;7.73;83.88;93110.47;5120346;28;20258;-77
2022/09/25 01:29:55;;;;;;;10.83;10.27;;;;;;;7.54;83.47;93085.91;5127026;28;20230;-77
2022/09/25 01:33:08;;;;;;;11.37;10.67;;;;;;;7.42;83.30;93098.28;5127510;28;20302;-77
2022/09/25 01:35:38;;;;;;;11.23;10.53;;;;;;;7.37;83.79;93106.03;5120032;28;20233;-76
2022/09/25 01:38:33;;;;;;;11.10;10.57;;;;;;;7.49;84.15;93106.63;5128440;28;20251;-77
2022/09/25 01:41:10;;;;;;;9.80;9.20;;;;;;;7.58;83.57;93112.94;5125116;28;20226;-77
2022/09/25 01:43:41;;;;;;;11.03;10.43;;;;;;;7.46;83.58;93104.53;5129256;28;20191;-77
2022/09/25 01:46:14;;;;;;;11.10;10.40;;;;;;;7.62;83.55;93110.63;5128449;28;20205;-77
2022/09/25 01:48:43;;;;;;;11.67;11.00;;;;;;;7.53;82.88;93106.94;5126919;28;20187;-77
2022/09/25 01:51:31;;;;;;;10.20;9.70;;;;;;;7.21;82.67;93049.78;5127237;28;20252;-76
2022/09/25 01:54:03;;;;;;;10.33;9.77;;;;;;;7.76;82.99;93120.38;5127333;28;20265;-77
2022/09/25 01:56:36;;;;;;;10.23;9.73;;;;;;;7.48;83.16;93092.09;5129768;28;20187;-77
2022/09/25 01:59:17;;;;;;;10.90;10.30;;;;;;;7.57;83.08;93113.97;5125494;28;20231;-77
2022/09/25 02:01:46;;;;;;;10.90;10.30;;;;;;;7.59;83.46;93130.13;5128034;28;20187;-77
2022/09/25 02:04:21;;;;;;;10.77;10.17;;;;;;;7.44;83.22;93098.78;5127140;28;20218;-76
2022/09/25 02:06:49;;;;;;;10.87;10.27;;;;;;;7.49;83.55;93114.44;5129280;28;20201;-76
2022/09/25 02:09:26;;;;;;;10.83;10.17;;;;;;;7.34;84.67;93090.94;5127964;28;20248;-77
2022/09/25 02:11:56;;;;;;;11.00;10.03;;;;;;;7.44;84.42;93104.00;5125830;28;20207;-77
2022/09/25 02:14:32;;;;;;;11.63;10.97;;;;;;;7.21;83.94;93065.34;5129646;28;20229;-77
2022/09/25 02:16:58;;;;;;;11.63;10.93;;;;;;;7.36;83.98;93099.25;5128194;28;20234;-77
2022/09/25 02:22:24;;;;;;;10.57;9.97;;;;;;;7.28;86.03;93110.09;5127650;28;20202;-77
2022/09/25 02:24:56;;;;;;;10.07;9.47;;;;;;;7.02;85.95;93074.53;5128658;28;20231;-77
2022/09/25 02:27:24;;;;;;;11.50;10.80;;;;;;;7.18;86.96;93099.59;5128539;28;20183;-77
2022/09/25 02:29:51;;;;;;;12.97;11.90;;;;;;;7.31;85.57;93107.00;5126551;28;20681;-77
2022/09/25 02:32:20;;;;;;;12.50;11.50;;;;;;;7.34;85.37;93121.31;5129769;28;20214;-76
2022/09/25 02:34:46;;;;;;;11.20;10.50;;;;;;;7.09;86.23;93119.25;5125589;28;20220;-77
2022/09/25 02:37:13;;;;;;;11.20;10.47;;;;;;;7.20;84.60;93120.13;5129332;28;20185;-77
2022/09/25 02:39:41;;;;;;;11.83;11.23;;;;;;;7.27;84.80;93116.31;5127199;28;20238;-78
2022/09/25 02:42:19;;;;;;;11.30;10.57;;;;;;;7.19;85.88;93114.16;5127663;28;20247;-77
2022/09/25 02:44:54;;;;;;;12.23;11.53;;;;;;;7.25;85.94;93097.59;5127146;28;20239;-76
2022/09/25 02:47:23;;;;;;;11.47;10.77;;;;;;;7.20;86.35;93102.75;5129421;28;20187;-77
2022/09/25 02:50:06;;;;;;;10.07;9.47;;;;;;;7.31;85.40;93108.81;5127192;28;20220;-76
2022/09/25 02:52:40;;;;;;;10.67;10.07;;;;;;;7.22;85.58;93105.88;5127315;28;20214;-77
2022/09/25 02:55:16;;;;;;;10.20;9.67;;;;;;;7.29;85.31;93108.25;5128038;28;20223;-77
2022/09/25 02:57:51;;;;;;;11.13;10.37;;;;;;;7.18;84.42;93083.22;5126882;28;20188;-77
2022/09/25 03:00:17;;;;;;;10.90;10.27;;;;;;;7.19;85.40;93098.56;5127101;28;20218;-77
2022/09/25 03:02:44;;;;;;;10.90;10.20;;;;;;;7.17;85.79;93095.44;5127448;28;20198;-77
2022/09/25 03:05:12;;;;;;;11.17;10.47;;;;;;;7.24;85.21;93095.22;5127149;28;20240;-76
2022/09/25 03:10:23;;;;;;;10.93;10.20;;;;;;;7.18;87.29;93102.19;5125662;28;20325;-77
2022/09/25 03:12:48;;;;;;;11.77;11.10;;;;;;;7.28;85.91;93104.13;5128552;28;20211;-76
2022/09/25 03:15:14;;;;;;;11.13;10.53;;;;;;;7.27;85.71;93105.91;5131240;27;20238;-77
2022/09/25 03:17:40;;;;;;;11.87;11.17;;;;;;;7.30;86.76;93104.66;5132864;28;20234;-76
2022/09/25 03:20:08;;;;;;;11.43;10.83;;;;;;;7.29;86.06;93084.91;5130592;28;20230;-77
2022/09/25 03:22:33;;;;;;;10.53;9.93;;;;;;;7.05;85.92;93052.50;5131340;28;20215;-77
2022/09/25 03:24:58;;;;;;;11.43;10.83;;;;;;;7.48;86.55;93106.88;5131831;28;20230;-74
2022/09/25 03:27:26;;;;;;;10.50;9.90;;;;;;;7.65;85.67;93108.34;5131383;28;20191;-72
2022/09/25 03:29:52;;;;;;;9.37;8.83;;;;;;;7.52;85.68;93090.56;5131024;28;20230;-76
2022/09/25 03:32:18;;;;;;;11.33;10.30;;;;;;;7.54;85.55;93096.28;5132286;28;20222;-77
2022/09/25 03:34:43;;;;;;;10.57;9.87;;;;;;;7.61;85.06;93086.47;5131196;28;20279;-77
2022/09/25 03:37:08;;;;;;;11.97;11.20;;;;;;;7.66;85.24;93088.31;5132770;28;20187;-77
2022/09/25 03:39:34;;;;;;;11.77;10.97;;;;;;;7.45;85.43;93079.59;5130866;28;20842;-77
2022/09/25 03:41:59;;;;;;;12.33;11.60;;;;;;;7.56;85.28;93086.44;5131599;28;20180;-77
2022/09/25 03:44:24;;;;;;;11.13;10.53;;;;;;;7.47;85.30;93084.53;5130877;28;20231;-76
2022/09/25 03:46:50;;;;;;;11.77;11.17;;;;;;;7.50;85.69;93089.25;5131724;28;20192;-77
2022/09/25 03:49:15;;;;;;;10.57;9.87;;;;;;;7.41;86.56;93095.94;5129236;28;20258;-77
2022/09/25 03:51:40;;;;;;;11.40;10.70;;;;;;;7.12;86.67;93060.84;5130821;28;20211;-77
2022/09/25 03:54:06;;;;;;;11.13;10.57;;;;;;;7.08;86.46;93060.56;5130201;28;20564;-77
2022/09/25 03:56:32;;;;;;;11.10;10.50;;;;;;;7.17;86.16;93089.47;5131543;28;20183;-76
2022/09/25 03:58:58;;;;;;;11.57;10.60;;;;;;;7.22;86.10;93103.25;5130471;27;20268;-77
2022/09/25 04:01:25;;;;;;;11.30;10.70;;;;;;;7.17;86.36;93105.84;5131046;28;20183;-77
2022/09/25 04:03:51;;;;;;;11.07;10.30;;;;;;;7.06;87.33;93109.34;5131076;28;20271;-73
2022/09/25 04:06:19;;;;;;;10.90;10.10;;;;;;;7.09;87.24;93103.69;5131338;28;20195;-73
2022/09/25 04:08:46;;;;;;;10.53;9.93;;;;;;;7.26;86.34;93111.34;5130059;27;20247;-73
2022/09/25 04:11:12;;;;;;;11.07;10.03;;;;;;;6.97;88.09;93097.06;5132358;28;20201;-73
2022/09/25 04:13:40;;;;;;;10.87;10.17;;;;;;;7.17;87.13;93107.63;5129793;28;20191;-73
2022/09/25 04:16:06;;;;;;;11.30;10.70;;;;;;;6.85;86.70;93075.66;5132259;28;20242;-73
2022/09/25 04:18:32;;;;;;;11.30;10.70;;;;;;;7.19;86.28;93101.16;5129329;28;20194;-73
2022/09/25 04:20:58;;;;;;;10.67;10.07;;;;;;;6.95;87.64;93107.69;5132204;27;20180;-73
2022/09/25 04:23:24;;;;;;;10.33;9.73;;;;;;;7.12;87.31;93110.19;5128688;27;20210;-74
2022/09/25 04:25:49;;;;;;;11.57;10.93;;;;;;;7.13;86.48;93120.31;5129486;28;20246;-73
2022/09/25 04:28:14;;;;;;;10.80;10.20;;;;;;;7.03;87.00;93122.81;5131938;28;20291;-73
2022/09/25 04:30:40;;;;;;;11.63;11.03;;;;;;;7.05;87.14;93112.97;5130079;28;20223;-73
2022/09/25 04:35:49;;;;;;;10.47;9.73;;;;;;;7.05;87.30;93118.16;5130914;28;20206;-73
2022/09/25 04:38:14;;;;;;;12.30;11.50;;;;;;;7.03;87.85;93114.25;5128205;27;20247;-73
2022/09/25 04:40:40;;;;;;;11.93;11.23;;;;;;;7.24;86.62;93116.78;5129522;27;20230;-73
2022/09/25 04:43:06;;;;;;;11.10;10.47;;;;;;;6.98;87.76;93102.00;5131411;28;20191;-73
2022/09/25 04:45:35;;;;;;;10.77;10.17;;;;;;;7.24;87.23;93108.22;5131065;28;20227;-73
2022/09/25 04:48:01;;;;;;;11.03;10.13;;;;;;;7.09;87.12;93114.06;5128493;28;20241;-73
2022/09/25 04:50:27;;;;;;;11.30;10.70;;;;;;;7.15;87.15;93107.09;5131151;28;21201;-73
2022/09/25 04:52:55;;;;;;;10.60;10.00;;;;;;;7.32;86.39;93107.78;5130517;28;20228;-73
2022/09/25 04:55:23;;;;;;;11.90;11.10;;;;;;;7.28;86.91;93112.69;5129444;28;20226;-73
2022/09/25 04:57:55;;;;;;;11.37;10.67;;;;;;;7.28;87.05;93112.69;5126813;28;20171;-73
2022/09/25 05:00:23;;;;;;;11.77;10.97;;;;;;;7.28;87.06;93106.72;5127883;28;20235;-73
2022/09/25 05:02:48;;;;;;;12.47;11.67;;;;;;;7.40;86.37;93110.72;5130070;28;20180;-73
2022/09/25 05:05:14;;;;;;;13.00;12.10;;;;;;;7.38;86.82;93115.38;5129665;28;20247;-73
2022/09/25 05:07:50;;;;;;;11.87;11.03;;;;;;;7.45;86.87;93121.16;5130159;28;20217;-73
2022/09/25 05:10:15;;;;;;;12.10;11.43;;;;;;;7.56;86.69;93125.41;5129684;28;20226;-73
2022/09/25 05:12:41;;;;;;;11.13;10.43;;;;;;;7.64;86.83;93119.75;5128731;28;20207;-73
2022/09/25 05:15:08;;;;;;;12.13;11.33;;;;;;;7.78;86.26;93120.88;5129558;27;20219;-73
2022/09/25 05:17:33;;;;;;;10.93;10.23;;;;;;;7.95;85.64;93103.34;5130352;27;20194;-73
2022/09/25 05:19:59;;;;;;;11.30;10.17;;;;;;;8.18;85.45;93100.38;5130445;28;20235;-72
2022/09/25 05:22:24;;;;;;;11.90;11.00;;;;;;;8.45;85.22;93107.31;5129398;28;20214;-77
2022/09/25 05:24:52;;;;;;;11.90;11.00;;;;;;;8.63;84.10;93099.06;5127454;28;20223;-77
2022/09/25 05:27:17;;;;;;;11.10;10.50;;;;;;;8.79;82.69;93087.69;5128836;28;20198;-78
2022/09/25 05:29:42;;;;;;;9.97;9.23;;;;;;;8.86;82.05;93069.97;5127161;28;20219;-77
2022/09/25 05:32:08;;;;;;;11.33;10.50;;;;;;;9.32;78.33;93105.53;5128072;28;20283;-77
2022/09/25 05:34:34;;;;;;;10.73;9.77;;;;;;;9.21;78.21;93078.66;5129214;28;20223;-77
2022/09/25 05:36:59;;;;;;;13.07;11.80;;;;;;;9.45;78.12;93107.63;5128185;28;20247;-77
2022/09/25 05:39:25;;;;;;;16.83;15.03;;;;;;;9.39;77.59;93093.81;5129418;28;20236;-78
2022/09/25 05:41:51;;;;;;;16.17;14.47;;;;;;;9.31;78.56;93109.16;5129886;28;20187;-77
2022/09/25 05:44:16;;;;;;;14.13;12.93;;;;;;;9.14;80.00;93098.97;5129425;28;20299;-78
2022/09/25 05:46:42;;;;;;;14.33;12.97;;;;;;;9.22;80.34;93103.69;5129867;28;20199;-77
2022/09/25 05:49:07;;;;;;;15.03;13.80;;;;;;;9.42;78.80;93103.72;5128142;28;20230;-78
2022/09/25 05:51:33;;;;;;;15.90;14.50;;;;;;;9.43;80.30;93109.72;5128064;28;20227;-78
2022/09/25 05:53:59;;;;;;;14.50;13.03;;;;;;;9.36;80.03;93094.31;5128664;28;20325;-78
2022/09/25 05:56:24;;;;;;;15.40;14.20;;;;;;;9.71;78.34;93132.69;5127689;28;20187;-77
2022/09/25 05:58:51;;;;;;;13.80;12.83;;;;;;;9.83;76.05;93133.19;5125457;28;20227;-78
2022/09/25 06:01:18;;;;;;;14.47;13.30;;;;;;;9.89;75.19;93136.56;5128771;28;20184;-77
2022/09/25 06:03:44;;;;;;;15.10;13.77;;;;;;;9.89;75.31;93134.75;5127466;28;20238;-77
2022/09/25 06:06:09;;;;;;;14.17;13.03;;;;;;;9.72;75.97;93110.78;5129227;28;20175;-77
2022/09/25 06:08:34;;;;;;;14.50;13.43;;;;;;;10.12;74.80;93113.38;5128034;28;20183;-77
2022/09/25 06:11:01;;;;;;;14.33;13.03;;;;;;;10.31;73.34;93103.97;5127650;28;20202;-78
2022/09/25 06:13:28;;;;;;;14.43;13.03;;;;;;;10.46;73.34;93113.59;5128944;28;20207;-78
2022/09/25 06:15:53;;;;;;;14.30;13.20;;;;;;;10.57;73.84;93125.56;5128766;28;20258;-78
2022/09/25 06:18:20;;;;;;;16.10;14.70;;;;;;;10.77;74.15;93109.84;5128475;28;20221;-78
2022/09/25 06:20:46;;;;;;;15.17;13.87;;;;;;;10.72;75.25;93131.50;5128201;28;20226;-77
2022/09/25 06:23:12;;;;;;;14.70;13.27;;;;;;;10.71;74.90;93116.91;5127553;28;20183;-78
2022/09/25 06:25:37;;;;;;;15.80;14.50;;;;;;;10.72;76.10;93128.91;5127520;27;20302;-77
2022/09/25 06:28:03;;;;;;;19.53;15.07;;;;;;;10.61;76.45;93140.44;5128933;28;20179;-77
2022/09/25 06:30:34;;;;;;;15.47;13.97;;;;;;;11.04;75.33;93137.16;5127853;28;20249;-77
2022/09/25 06:33:02;;;;;;;16.80;15.20;;;;;;;11.33;73.21;93130.22;5128670;28;20215;-77
2022/09/25 06:35:30;;;;;;;14.67;13.37;;;;;;;11.17;74.51;93128.72;5127695;28;20241;-77
2022/09/25 06:37:58;;;;;;;15.67;14.07;;;;;;;10.88;74.56;93117.38;5128759;28;20190;-78
2022/09/25 06:40:26;;;;;;;16.10;14.40;;;;;;;11.12;73.98;93136.59;5126619;28;21022;-77
2022/09/25 06:42:59;;;;;;;15.07;13.77;;;;;;;11.05;73.56;93130.88;5129266;28;20183;-77
2022/09/25 06:45:27;;;;;;;13.73;12.43;;;;;;;10.95;72.78;93112.66;5127948;28;20253;-77
2022/09/25 06:47:56;;;;;;;12.60;11.63;;;;;;;11.07;74.16;93146.28;5127999;28;20187;-77
2022/09/25 06:50:27;;;;;;;13.43;12.33;;;;;;;11.15;72.09;93143.91;5131124;28;20219;-77
2022/09/25 06:52:52;;;;;;;12.97;11.97;;;;;;;11.30;71.58;93145.66;5131152;28;20203;-78
2022/09/25 06:55:18;;;;;;;13.50;12.60;;;;;;;10.69;73.85;93079.06;5128495;28;20273;-78
2022/09/25 06:57:45;;;;;;;14.17;12.90;;;;;;;11.43;71.29;93152.13;5131547;28;20180;-77
2022/09/25 07:00:11;;;;;;;16.63;12.33;;;;;;;11.59;69.50;93137.91;5129903;28;20335;-77
2022/09/25 07:05:20;;;;;;;14.20;12.97;;;;;;;11.58;69.53;93138.97;5130113;28;20225;-77
2022/09/25 07:07:47;;;;;;;12.90;11.90;;;;;;;11.46;69.32;93122.81;5131692;28;20203;-77
2022/09/25 07:10:13;;;;;;;13.53;12.43;;;;;;;11.60;69.16;93149.94;5129004;28;20283;-77
2022/09/25 07:12:39;;;;;;;13.10;12.10;;;;;;;11.49;70.15;93143.97;5129658;28;20222;-77
2022/09/25 07:15:05;;;;;;;12.90;12.00;;;;;;;11.76;70.67;93143.59;5131661;28;20533;-77
2022/09/25 07:17:30;;;;;;;12.37;11.57;;;;;;;11.94;70.07;93166.50;5131652;28;20203;-75
2022/09/25 07:19:56;;;;;;;13.90;12.80;;;;;;;12.42;68.12;93186.53;5129641;28;20271;-75
2022/09/25 07:22:21;;;;;;;13.27;12.20;;;;;;;12.02;69.64;93186.84;5130160;28;20935;-74
2022/09/25 07:24:46;;;;;;;13.27;11.93;;;;;;;12.39;67.47;93179.22;5132922;28;20232;-75
2022/09/25 07:27:12;;;;;;;12.07;11.17;;;;;;;12.20;69.07;93192.19;5130011;28;20192;-75
2022/09/25 07:29:37;;;;;;;13.43;11.30;;;;;;;12.60;67.83;93201.56;5132764;28;20291;-75
2022/09/25 07:32:03;;;;;;;12.90;11.93;;;;;;;12.17;67.78;93186.75;5131773;28;20203;-75
2022/09/25 07:34:29;;;;;;;12.40;11.50;;;;;;;12.12;68.25;93176.31;5132960;27;20226;-75
2022/09/25 07:36:54;;;;;;;12.13;11.17;;;;;;;12.61;67.87;93182.16;5130548;28;20202;-75
2022/09/25 07:39:20;;;;;;;12.07;10.67;;;;;;;12.52;67.23;93189.06;5132324;28;20228;-75
2022/09/25 07:41:46;;;;;;;11.83;11.03;;;;;;;12.26;65.84;93179.84;5132800;28;20243;-75
2022/09/25 07:44:11;;;;;;;12.47;11.60;;;;;;;12.45;66.21;93168.41;5132309;28;20288;-75
2022/09/25 07:46:41;;;;;;;14.57;11.53;;;;;;;12.83;64.59;93143.94;5131254;28;20199;-75
2022/09/25 07:49:07;;;;;;;12.27;11.47;;;;;;;12.98;64.00;93156.88;5132572;27;20231;-75
2022/09/25 07:51:32;;;;;;;12.33;10.53;;;;;;;13.03;63.38;93156.06;5130082;28;20219;-75
2022/09/25 07:53:57;;;;;;;12.27;11.37;;;;;;;12.55;64.68;93136.91;5132315;28;20223;-73
2022/09/25 07:56:23;;;;;;;11.97;11.07;;;;;;;12.85;65.27;93128.75;5131148;28;20195;-74
2022/09/25 07:58:52;;;;;;;12.00;11.10;;;;;;;13.38;62.72;93120.78;5131741;28;20235;-74
2022/09/25 08:01:17;;;;;;;12.77;11.57;;;;;;;13.60;62.19;93134.91;5130949;28;20235;-76
2022/09/25 08:03:43;;;;;;;12.43;11.43;;;;;;;13.31;62.40;93125.59;5131221;28;20219;-76
2022/09/25 08:06:11;;;;;;;12.67;11.67;;;;;;;13.43;61.85;93136.44;5131425;28;20270;-76
2022/09/25 08:08:37;;;;;;;12.53;11.43;;;;;;;13.61;60.82;93144.31;5131221;28;20220;-73
2022/09/25 08:11:10;;;;;;;13.10;12.10;;;;;;;13.86;60.14;93140.56;5127262;28;20299;-73
2022/09/25 08:13:39;;;;;;;12.27;11.27;;;;;;;13.70;59.98;93147.88;5130453;28;20193;-72
2022/09/25 08:16:10;;;;;;;13.50;12.23;;;;;;;13.77;60.81;93153.56;5131239;28;20217;-74
2022/09/25 08:18:37;;;;;;;12.50;11.43;;;;;;;13.86;60.94;93136.09;5129714;28;20191;-74
2022/09/25 08:21:03;;;;;;;13.87;12.43;;;;;;;14.35;58.02;93149.53;5126124;28;20255;-73
2022/09/25 08:23:29;;;;;;;14.20;13.27;;;;;;;14.05;59.18;93139.50;5125250;27;20191;-74
2022/09/25 08:25:55;;;;;;;12.93;11.87;;;;;;;14.44;57.45;93131.25;5127026;28;20179;-73
2022/09/25 08:28:21;;;;;;;13.03;12.07;;;;;;;14.29;57.13;93098.16;5126133;28;20184;-75
2022/09/25 08:30:47;;;;;;;12.10;11.10;;;;;;;14.50;56.51;93124.84;5129818;28;20306;-73
2022/09/25 08:33:12;;;;;;;12.13;10.93;;;;;;;14.55;55.05;93110.84;5128891;28;20281;-75
2022/09/25 08:35:39;;;;;;;12.10;11.20;;;;;;;14.42;55.30;93115.00;5121750;27;20282;-74
2022/09/25 08:38:06;;;;;;;13.77;12.77;;;;;;;14.40;57.03;93107.41;5126317;28;20686;-73
2022/09/25 08:40:33;;;;;;;13.67;12.53;;;;;;;14.59;57.07;93106.56;5123332;28;20215;-75
2022/09/25 08:42:59;;;;;;;12.80;11.47;;;;;;;14.97;53.53;93110.59;5126097;28;20172;-72
2022/09/25 08:51:20;;;;;;;12.30;11.30;;;;;;;14.41;53.23;93100.31;5128363;28;20210;-73
2022/09/25 08:53:46;;;;;;;12.23;11.33;;;;;;;14.70;52.98;93124.50;5129662;28;20257;-73
2022/09/25 08:56:19;;;;;;;11.97;10.77;;;;;;;14.89;52.88;93121.78;5129642;28;20183;-74
2022/09/25 08:59:25;;;;;;;11.10;10.50;;;;;;;15.17;48.51;93134.63;5128561;27;20324;-78
2022/09/25 09:01:56;;;;;;;10.90;10.17;;;;;;;14.89;49.81;93129.66;5130299;28;20211;-77
2022/09/25 09:04:37;;;;;;;11.30;10.60;;;;;;;15.01;49.77;93087.88;5128399;27;20260;-76
2022/09/25 09:07:07;;;;;;;12.37;11.47;;;;;;;15.27;49.22;93123.13;5126905;28;20239;-78
2022/09/25 09:09:47;;;;;;;11.30;10.50;;;;;;;15.13;49.67;93106.59;5128514;28;20227;-78
2022/09/25 09:12:18;;;;;;;12.20;11.30;;;;;;;15.42;50.57;93110.47;5127987;28;20219;-80
2022/09/25 09:14:47;;;;;;;11.20;10.27;;;;;;;15.46;50.50;93086.97;5130051;28;20251;-79
2022/09/25 09:17:17;;;;;;;11.40;10.57;;;;;;;15.75;49.28;93108.44;5129398;28;20203;-81
2022/09/25 09:19:58;;;;;;;10.77;10.00;;;;;;;15.77;49.00;93104.44;5129806;28;20272;-79
2022/09/25 09:22:32;;;;;;;11.70;10.90;;;;;;;15.74;49.07;93078.69;5127990;28;20187;-81
2022/09/25 09:25:03;;;;;;;11.00;10.30;;;;;;;15.87;49.79;93101.59;5127743;28;20211;-81
2022/09/25 09:28:01;;;;;;;11.83;10.83;;;;;;;15.89;49.95;93073.06;5128859;28;20191;-77
2022/09/25 09:30:41;;;;;;;11.73;10.90;;;;;;;16.02;48.27;93101.22;5126694;28;20223;-79
2022/09/25 09:33:28;;;;;;;10.97;10.27;;;;;;;15.80;49.02;93103.84;5128152;28;20230;-75
2022/09/25 09:36:05;;;;;;;11.53;10.00;;;;;;;16.12;47.53;93102.84;5142182;27;20672;-80
2022/09/25 09:39:09;;;;;;;10.67;9.87;;;;;;;16.39;47.35;93092.13;5128563;28;20175;-77
2022/09/25 09:41:53;;;;;;;10.20;9.60;;;;;;;16.63;46.23;93094.47;5128766;28;20214;-80
2022/09/25 09:44:53;;;;;;;11.03;10.03;;;;;;;16.70;45.82;93092.94;5127348;28;20231;-77
2022/09/25 09:47:38;;;;;;;10.43;9.80;;;;;;;16.77;45.53;93093.31;5128552;28;20184;-78
2022/09/25 09:50:48;;;;;;;14.07;12.97;;;;;;;16.80;46.38;93070.81;5127765;27;20713;-75
2022/09/25 09:53:22;;;;;;;11.03;10.20;;;;;;;16.80;45.97;93081.34;5128624;28;20261;-76
2022/09/25 09:55:51;;;;;;;10.77;9.97;;;;;;;15.93;47.46;93066.16;5127517;28;20211;-71
2022/09/25 09:58:46;;;;;;;11.50;10.80;;;;;;;15.84;48.10;93040.84;5127830;28;20247;-75
2022/09/25 10:01:14;;;;;;;11.90;11.00;;;;;;;16.22;48.38;93084.13;5105700;28;20216;-75
2022/09/25 10:03:40;;;;;;;10.93;10.13;;;;;;;15.81;47.62;93038.81;5104029;27;20190;-77
2022/09/25 10:06:13;;;;;;;11.27;10.10;;;;;;;16.24;45.77;93073.28;5105243;28;20275;-75
2022/09/25 10:08:42;;;;;;;11.20;10.07;;;;;;;16.58;44.48;93055.06;5105648;28;20188;-77
2022/09/25 10:11:18;;;;;;;10.97;10.27;;;;;;;16.34;44.83;93065.16;5102261;28;20256;-75
2022/09/25 10:13:45;;;;;;;10.67;9.93;;;;;;;15.96;46.15;93068.19;5104890;28;20253;-78
2022/09/25 10:16:18;;;;;;;11.03;10.20;;;;;;;16.24;45.65;93084.63;5106708;28;20183;-76
2022/09/25 10:18:59;;;;;;;10.40;9.80;;;;;;;16.04;47.75;93074.59;5104345;28;20224;-77
2022/09/25 10:21:30;;;;;;;12.10;11.30;;;;;;;16.17;47.54;93073.75;5121144;28;20251;-79
2022/09/25 10:24:01;;;;;;;10.97;10.17;;;;;;;16.12;45.81;93026.44;5103742;28;20289;-79
2022/09/25 10:26:36;;;;;;;11.67;10.87;;;;;;;16.08;46.05;93071.03;5105093;28;20747;-79
2022/09/25 10:29:06;;;;;;;10.60;9.83;;;;;;;16.21;45.59;93064.16;5104246;28;20228;-81
2022/09/25 10:31:35;;;;;;;10.70;9.90;;;;;;;16.33;45.83;93059.09;5107494;28;20188;-79
2022/09/25 10:34:00;;;;;;;10.93;10.20;;;;;;;16.89;44.37;93053.94;5105042;28;20240;-74
2022/09/25 10:36:30;;;;;;;11.20;10.50;;;;;;;16.79;42.77;93043.69;5104135;28;20225;-73
2022/09/25 10:38:55;;;;;;;10.03;9.30;;;;;;;16.36;44.48;93040.03;5106421;28;20237;-71
2022/09/25 10:41:21;;;;;;;11.20;10.43;;;;;;;16.71;43.77;93044.44;5122061;28;20176;-79
2022/09/25 10:44:00;;;;;;;10.33;9.73;;;;;;;16.66;42.36;93043.78;5107640;28;20246;-72
2022/09/25 10:52:07;;;;;;;10.40;9.73;;;;;;;17.00;41.33;93047.31;5105182;28;21237;-72
2022/09/25 10:54:33;;;;;;;10.00;9.40;;;;;;;16.75;41.57;93044.56;5107692;28;20321;-72
2022/09/25 10:56:59;;;;;;;9.70;9.17;;;;;;;16.82;40.29;93006.16;5104996;28;20207;-73
2022/09/25 10:59:26;;;;;;;10.40;9.60;;;;;;;16.98;42.15;93025.72;5114468;27;20235;-72
2022/09/25 11:01:54;;;;;;;11.93;11.00;;;;;;;17.09;42.21;93021.72;5126558;28;20191;-71
2022/09/25 11:04:30;;;;;;;10.73;10.00;;;;;;;17.63;42.47;93032.81;5121607;28;20222;-70
2022/09/25 11:07:06;;;;;;;11.13;10.33;;;;;;;17.50;41.72;92987.00;5125086;28;20199;-71
2022/09/25 11:09:34;;;;;;;11.40;10.17;;;;;;;17.55;41.97;93029.09;5124655;28;20219;-69
2022/09/25 11:12:15;;;;;;;10.20;9.53;;;;;;;17.09;41.72;93027.00;5124666;28;20226;-71
2022/09/25 11:14:56;;;;;;;10.37;9.47;;;;;;;17.00;43.51;93017.50;5125344;28;20220;-71
2022/09/25 11:17:32;;;;;;;10.93;10.23;;;;;;;17.01;42.68;92990.81;5123487;28;20201;-72
2022/09/25 11:20:16;;;;;;;11.30;10.40;;;;;;;17.42;43.12;93016.78;5124461;28;20253;-71
2022/09/25 11:22:48;;;;;;;10.33;9.53;;;;;;;17.63;41.81;93002.69;5125075;28;20195;-71
2022/09/25 11:25:19;;;;;;;11.07;10.27;;;;;;;17.77;40.25;93015.75;5122503;27;20212;-71
2022/09/25 11:27:52;;;;;;;10.00;9.30;;;;;;;17.96;39.67;93013.53;5125833;28;20176;-72
2022/09/25 11:30:19;;;;;;;9.23;8.70;;;;;;;17.90;41.76;93019.31;5128195;28;20222;-72
2022/09/25 11:33:03;;;;;;;10.53;9.83;;;;;;;18.10;39.43;93005.44;5127129;28;20214;-71
2022/09/25 11:35:31;;;;;;;9.57;8.80;;;;;;;18.43;38.28;93001.94;5128415;28;20256;-71
2022/09/25 11:38:06;;;;;;;9.50;8.80;;;;;;;18.26;38.09;92970.25;5130167;28;20177;-73
2022/09/25 11:43:37;;;;;;;9.27;8.77;;;;;;;17.78;39.04;93003.28;5129424;28;20209;-73
2022/09/25 11:46:21;;;;;;;9.07;8.57;;;;;;;18.07;37.24;92977.75;5129846;28;20183;-71
2022/09/25 11:49:03;;;;;;;9.67;9.17;;;;;;;18.20;37.70;92991.88;5130022;27;20245;-72
2022/09/25 11:52:05;;;;;;;10.07;9.47;;;;;;;18.33;38.07;92975.81;5128772;28;20203;-71
2022/09/25 11:55:18;;;;;;;9.77;9.17;;;;;;;18.50;37.98;92988.22;5127040;28;20255;-72
2022/09/25 11:57:50;;;;;;;9.73;9.03;;;;;;;18.67;38.64;92982.88;5102987;28;20195;-72
2022/09/25 12:00:35;;;;;;;9.53;9.03;;;;;;;18.69;38.81;92980.69;5129996;28;20341;-72
2022/09/25 12:03:18;;;;;;;10.30;9.70;;;;;;;19.10;39.14;92967.50;5127596;28;20171;-72
2022/09/25 12:06:02;;;;;;;9.93;9.23;;;;;;;19.37;38.90;92977.63;5128840;28;20225;-72
2022/09/25 12:08:43;;;;;;;16.83;10.07;;;;;;;19.34;38.74;92964.28;5129762;28;20208;-72